createdAt,value
2018-04-25T00:00:06.475Z,44.43
2018-04-25T00:03:57.725Z,46.14
2018-04-25T00:04:36.729Z,44.68
2018-04-25T00:05:36.722Z,45.65
2018-04-25T00:06:36.323Z,45.17
2018-04-25T00:07:37.223Z,45.65
2018-04-25T00:08:39.654Z,45.41
2018-04-25T00:09:37.224Z,44.43
2018-04-25T00:10:37.728Z,47.85
2018-04-25T00:11:58.724Z,45.17
2018-04-25T00:12:38.720Z,45.17
2018-04-25T00:14:00.656Z,44.19
2018-04-25T00:14:38.222Z,45.17
2018-04-25T00:15:44.224Z,44.92
2018-04-25T00:16:38.222Z,43.70
2018-04-25T00:17:59.222Z,43.95
2018-04-25T00:18:38.721Z,44.68
2018-04-25T00:19:38.750Z,44.19
2018-04-25T00:20:38.721Z,45.65
2018-04-25T00:21:38.734Z,45.90
2018-04-25T00:25:10.485Z,43.95
2018-04-25T00:26:09.964Z,44.68
2018-04-25T00:27:31.045Z,44.68
2018-04-25T00:28:12.425Z,44.19
2018-04-25T00:29:32.467Z,45.90
2018-04-25T00:30:31.990Z,46.39
2018-04-25T00:31:10.982Z,44.19
2018-04-25T00:32:17.561Z,63.72
2018-04-25T00:33:11.480Z,57.86
2018-04-25T00:34:13.481Z,44.68
2018-04-25T00:35:11.479Z,79.59
2018-04-25T00:36:17.980Z,45.90
2018-04-25T00:37:32.204Z,43.70
2018-04-25T00:38:11.980Z,43.70
2018-04-25T00:39:11.981Z,45.17
2018-04-25T00:40:13.932Z,44.43
2018-04-25T00:41:33.483Z,44.68
2018-04-25T00:42:12.482Z,47.85
2018-04-25T00:43:12.481Z,46.63
2018-04-25T00:44:12.485Z,46.63
2018-04-25T00:45:12.081Z,47.12
2018-04-25T00:49:11.338Z,46.88
2018-04-25T00:49:44.344Z,46.14
2018-04-25T00:50:43.932Z,45.90
2018-04-25T00:51:44.839Z,46.63
2018-04-25T00:52:50.839Z,45.65
2018-04-25T00:53:44.847Z,45.65
2018-04-25T00:55:06.339Z,45.17
2018-04-25T00:55:47.271Z,44.68
2018-04-25T00:56:46.800Z,47.12
2018-04-25T00:58:06.338Z,45.41
2018-04-25T00:58:45.339Z,44.19
2018-04-25T00:59:51.838Z,44.68
2018-04-25T01:00:51.839Z,43.70
2018-04-25T01:01:47.839Z,43.70
2018-04-25T01:02:45.838Z,43.95
2018-04-25T01:03:47.336Z,47.12
2018-04-25T01:04:46.338Z,43.95
2018-04-25T01:05:46.337Z,44.68
2018-04-25T01:06:46.338Z,44.68
2018-04-25T01:07:46.839Z,43.95
2018-04-25T01:08:46.839Z,45.17
2018-04-25T01:09:46.842Z,44.92
2018-04-25T01:10:47.340Z,44.19
2018-04-25T01:11:47.443Z,43.95
2018-04-25T01:12:47.342Z,43.70
2018-04-25T01:13:47.345Z,45.17
2018-04-25T01:14:47.336Z,45.65
2018-04-25T01:18:19.104Z,44.19
2018-04-25T01:19:19.101Z,44.68
2018-04-25T01:20:18.736Z,44.43
2018-04-25T01:21:20.536Z,44.68
2018-04-25T01:22:19.604Z,43.95
2018-04-25T01:23:19.601Z,43.95
2018-04-25T01:24:20.102Z,44.68
2018-04-25T01:25:21.052Z,44.19
2018-04-25T01:26:20.103Z,43.95
2018-04-25T01:27:20.112Z,43.95
2018-04-25T01:28:20.109Z,44.43
2018-04-25T01:29:19.711Z,45.41
2018-04-25T01:32:51.971Z,44.92
2018-04-25T01:33:52.969Z,45.41
2018-04-25T01:35:13.470Z,45.65
2018-04-25T01:35:51.701Z,45.17
2018-04-25T01:36:52.468Z,45.41
2018-04-25T01:37:52.967Z,45.41
2018-04-25T01:38:52.071Z,83.98
2018-04-25T01:39:52.967Z,51.51
2018-04-25T01:40:52.969Z,46.88
2018-04-25T01:41:52.973Z,45.90
2018-04-25T01:42:52.589Z,45.65
2018-04-25T01:43:53.467Z,46.39
2018-04-25T01:44:53.468Z,47.36
2018-04-25T01:45:53.461Z,47.61
2018-04-25T01:47:14.964Z,46.14
2018-04-25T01:48:14.969Z,45.90
2018-04-25T01:49:14.973Z,46.88
2018-04-25T01:49:53.963Z,46.14
2018-04-25T01:53:25.719Z,46.63
2018-04-25T01:54:26.219Z,45.41
2018-04-25T01:55:26.213Z,49.07
2018-04-25T01:56:26.214Z,45.90
2018-04-25T01:57:26.215Z,47.12
2018-04-25T01:58:40.714Z,47.12
2018-04-25T01:59:26.717Z,45.65
2018-04-25T02:02:58.214Z,45.41
2018-04-25T02:03:58.215Z,46.14
2018-04-25T02:04:58.715Z,46.63
2018-04-25T02:05:58.710Z,47.36
2018-04-25T02:06:58.748Z,46.88
2018-04-25T02:07:58.717Z,46.39
2018-04-25T02:09:20.214Z,46.88
2018-04-25T02:09:59.217Z,47.36
2018-04-25T02:10:58.573Z,47.61
2018-04-25T02:11:59.244Z,46.88
2018-04-25T02:12:59.719Z,45.90
2018-04-25T02:13:59.713Z,46.39
2018-04-25T02:14:59.713Z,48.58
2018-04-25T02:15:59.716Z,47.36
2018-04-25T02:19:30.820Z,47.36
2018-04-25T02:20:31.481Z,48.34
2018-04-25T02:21:52.976Z,46.39
2018-04-25T02:22:52.192Z,46.39
2018-04-25T02:23:31.976Z,46.14
2018-04-25T02:24:31.981Z,47.61
2018-04-25T02:25:32.476Z,47.12
2018-04-25T02:26:32.476Z,47.61
2018-04-25T02:27:33.476Z,46.63
2018-04-25T02:28:32.477Z,90.09
2018-04-25T02:29:32.976Z,45.41
2018-04-25T02:30:32.980Z,46.88
2018-04-25T02:31:32.975Z,47.36
2018-04-25T02:32:32.975Z,46.63
2018-04-25T02:33:33.480Z,47.12
2018-04-25T02:34:33.484Z,53.22
2018-04-25T02:35:53.812Z,80.57
2018-04-25T02:36:33.475Z,47.85
2018-04-25T02:37:54.976Z,47.61
2018-04-25T02:38:40.972Z,46.88
2018-04-25T02:39:39.977Z,46.63
2018-04-25T02:40:54.977Z,45.90
2018-04-25T02:41:55.474Z,59.57
2018-04-25T02:42:34.720Z,48.34
2018-04-25T02:43:40.475Z,47.61
2018-04-25T02:44:34.479Z,46.63
2018-04-25T02:45:55.977Z,46.63
2018-04-25T02:46:34.975Z,47.36
2018-04-25T02:47:55.907Z,82.76
2018-04-25T02:51:07.999Z,47.85
2018-04-25T02:52:29.047Z,46.88
2018-04-25T02:53:07.049Z,47.36
2018-04-25T02:54:28.546Z,81.79
2018-04-25T02:55:07.543Z,46.88
2018-04-25T02:56:07.543Z,83.74
2018-04-25T02:57:07.543Z,47.61
2018-04-25T02:58:29.052Z,85.21
2018-04-25T02:59:08.044Z,46.39
2018-04-25T03:00:29.042Z,47.85
2018-04-25T03:01:08.043Z,47.61
2018-04-25T03:02:08.543Z,47.85
2018-04-25T03:03:29.543Z,48.10
2018-04-25T03:04:08.585Z,82.03
2018-04-25T03:05:08.543Z,82.52
2018-04-25T03:06:30.048Z,48.58
2018-04-25T03:07:09.041Z,47.12
2018-04-25T03:08:09.118Z,47.61
2018-04-25T03:09:09.043Z,84.23
2018-04-25T03:10:10.975Z,55.18
2018-04-25T03:11:09.572Z,48.83
2018-04-25T03:12:09.542Z,49.56
2018-04-25T03:13:09.543Z,50.05
2018-04-25T03:14:31.045Z,82.03
2018-04-25T03:15:10.049Z,79.10
2018-04-25T03:16:31.042Z,63.96
2018-04-25T03:17:12.516Z,64.21
2018-04-25T03:20:41.786Z,81.54
2018-04-25T03:22:02.788Z,75.44
2018-04-25T03:22:41.383Z,53.96
2018-04-25T03:23:42.284Z,54.93
2018-04-25T03:24:42.282Z,80.08
2018-04-25T03:25:42.287Z,79.10
2018-04-25T03:29:14.527Z,83.01
2018-04-25T03:30:14.539Z,78.61
2018-04-25T03:31:14.169Z,81.54
2018-04-25T03:32:15.027Z,60.06
2018-04-25T03:33:36.027Z,84.23
2018-04-25T03:34:15.060Z,61.04
2018-04-25T03:35:36.524Z,62.99
2018-04-25T03:36:36.524Z,62.50
2018-04-25T03:37:15.527Z,62.50
2018-04-25T03:38:15.001Z,62.01
2018-04-25T03:39:16.036Z,61.77
2018-04-25T03:40:37.028Z,65.92
2018-04-25T03:41:16.029Z,59.33
2018-04-25T03:42:16.025Z,60.79
2018-04-25T03:45:47.783Z,83.50
2018-04-25T03:46:47.785Z,85.45
2018-04-25T03:47:48.284Z,80.32
2018-04-25T03:49:09.283Z,80.57
2018-04-25T03:49:48.283Z,81.54
2018-04-25T03:50:48.283Z,60.55
2018-04-25T03:51:48.783Z,82.52
2018-04-25T03:52:48.795Z,67.38
2018-04-25T03:53:48.780Z,85.45
2018-04-25T03:54:48.782Z,88.13
2018-04-25T03:55:49.285Z,83.25
2018-04-25T03:56:49.284Z,84.72
2018-04-25T03:57:50.223Z,84.47
2018-04-25T03:58:49.286Z,86.18
2018-04-25T03:59:49.283Z,64.45
2018-04-25T04:01:10.784Z,64.21
2018-04-25T04:01:49.784Z,62.74
2018-04-25T04:02:49.794Z,84.47
2018-04-25T04:03:50.779Z,66.16
2018-04-25T04:04:50.281Z,84.96
2018-04-25T04:08:21.662Z,81.79
2018-04-25T04:09:21.654Z,84.23
2018-04-25T04:10:22.154Z,85.94
2018-04-25T04:11:22.153Z,83.74
2018-04-25T04:12:22.153Z,64.70
2018-04-25T04:13:22.153Z,64.45
2018-04-25T04:14:22.654Z,62.50
2018-04-25T04:15:22.654Z,63.96
2018-04-25T04:16:22.653Z,63.23
2018-04-25T04:17:22.729Z,84.47
2018-04-25T04:18:23.153Z,85.21
2018-04-25T04:19:43.376Z,83.74
2018-04-25T04:20:22.472Z,60.30
2018-04-25T04:21:23.153Z,82.28
2018-04-25T04:22:23.154Z,85.21
2018-04-25T04:23:23.652Z,85.69
2018-04-25T04:24:23.656Z,84.47
2018-04-25T04:25:23.653Z,53.96
2018-04-25T04:26:23.655Z,81.30
2018-04-25T04:27:45.153Z,85.21
2018-04-25T04:28:25.127Z,54.93
2018-04-25T04:29:24.153Z,83.01
2018-04-25T04:30:24.153Z,83.01
2018-04-25T04:31:24.653Z,85.69
2018-04-25T04:32:24.655Z,86.91
2018-04-25T04:33:24.652Z,53.96
2018-04-25T04:34:24.653Z,82.28
2018-04-25T04:35:46.155Z,82.03
2018-04-25T04:36:47.653Z,60.55
2018-04-25T04:37:25.151Z,62.99
2018-04-25T04:38:25.161Z,85.21
2018-04-25T04:39:46.659Z,85.69
2018-04-25T04:40:25.654Z,81.30
2018-04-25T04:41:27.085Z,84.72
2018-04-25T04:42:25.653Z,55.91
2018-04-25T04:43:27.120Z,61.77
2018-04-25T04:44:32.160Z,59.57
2018-04-25T04:45:27.151Z,87.89
2018-04-25T04:46:26.156Z,80.81
2018-04-25T04:49:57.921Z,83.50
2018-04-25T04:50:57.920Z,81.54
2018-04-25T04:51:58.430Z,87.89
2018-04-25T04:53:19.426Z,58.59
2018-04-25T04:54:19.421Z,90.09
2018-04-25T04:54:59.431Z,60.79
2018-04-25T04:55:58.920Z,84.72
2018-04-25T04:56:58.920Z,87.65
2018-04-25T04:57:58.922Z,83.74
2018-04-25T04:58:58.923Z,85.69
2018-04-25T04:59:58.518Z,68.85
2018-04-25T05:00:59.420Z,83.74
2018-04-25T05:01:59.432Z,81.54
2018-04-25T05:02:59.429Z,83.01
2018-04-25T05:03:59.920Z,87.89
2018-04-25T05:04:59.142Z,62.74
2018-04-25T05:05:59.918Z,83.74
2018-04-25T05:07:20.921Z,84.96
2018-04-25T05:08:20.590Z,83.50
2018-04-25T05:09:00.927Z,84.72
2018-04-25T05:10:21.425Z,62.26
2018-04-25T05:11:01.853Z,86.18
2018-04-25T05:12:00.927Z,85.94
2018-04-25T05:13:21.928Z,80.57
2018-04-25T05:14:00.922Z,82.28
2018-04-25T05:15:00.927Z,82.28
2018-04-25T05:16:00.920Z,83.74
2018-04-25T05:22:04.185Z,84.96
2018-04-25T05:23:04.167Z,85.94
2018-04-25T05:24:25.770Z,83.25
2018-04-25T05:27:36.046Z,53.22
2018-04-25T05:28:37.541Z,85.45
2018-04-25T05:32:33.348Z,81.54
2018-04-25T05:33:07.916Z,82.76
2018-04-25T05:34:29.416Z,80.57
2018-04-25T05:35:08.417Z,84.72
2018-04-25T05:36:29.415Z,84.47
2018-04-25T05:37:08.413Z,86.43
2018-04-25T05:40:40.180Z,84.23
2018-04-25T05:41:40.675Z,84.96
2018-04-25T05:42:40.675Z,81.54
2018-04-25T05:43:40.034Z,65.67
2018-04-25T05:44:40.683Z,90.58
2018-04-25T05:45:43.108Z,83.74
2018-04-25T05:46:43.175Z,83.50
2018-04-25T05:47:40.420Z,82.76
2018-04-25T05:51:33.679Z,83.74
2018-04-25T05:52:12.679Z,85.45
2018-04-25T05:53:13.179Z,58.59
2018-04-25T05:54:34.179Z,81.54
2018-04-25T05:55:34.179Z,79.10
2018-04-25T05:56:36.115Z,83.74
2018-04-25T05:59:44.921Z,53.71
2018-04-25T06:00:51.430Z,84.96
2018-04-25T06:01:45.424Z,88.13
2018-04-25T06:02:51.420Z,73.73
2018-04-25T06:03:45.424Z,89.11
2018-04-25T06:07:16.695Z,83.98
2018-04-25T06:10:49.950Z,75.93
2018-04-25T06:12:10.450Z,83.01
2018-04-25T06:12:48.674Z,55.18
2018-04-25T06:13:53.382Z,86.18
2018-04-25T06:14:49.447Z,61.77
2018-04-25T06:15:51.948Z,82.28
2018-04-25T06:16:49.175Z,83.01
2018-04-25T06:17:49.948Z,80.08
2018-04-25T06:18:49.948Z,83.50
2018-04-25T06:19:52.448Z,61.52
2018-04-25T06:20:50.448Z,83.98
2018-04-25T06:21:50.451Z,85.69
2018-04-25T06:22:51.457Z,83.25
2018-04-25T06:27:53.637Z,83.74
2018-04-25T06:28:53.637Z,80.08
2018-04-25T06:29:54.144Z,82.76
2018-04-25T06:30:54.132Z,83.98
2018-04-25T06:31:56.137Z,82.28
2018-04-25T06:32:54.136Z,85.21
2018-04-25T06:34:15.649Z,82.52
2018-04-25T06:35:08.633Z,57.13
2018-04-25T06:35:54.638Z,49.80
2018-04-25T06:37:15.637Z,83.50
2018-04-25T06:37:55.140Z,49.56
2018-04-25T06:38:55.198Z,83.50
2018-04-25T06:39:55.138Z,80.57
2018-04-25T06:40:57.569Z,83.01
2018-04-25T06:41:55.137Z,84.47
2018-04-25T06:47:58.893Z,84.72
2018-04-25T06:48:58.896Z,84.72
2018-04-25T06:49:59.389Z,61.04
2018-04-25T06:50:58.616Z,82.28
2018-04-25T06:51:59.395Z,85.21
2018-04-25T06:53:00.332Z,82.28
2018-04-25T06:53:59.890Z,51.03
2018-04-25T06:57:30.725Z,81.54
2018-04-25T06:58:51.805Z,82.76
2018-04-25T06:59:30.910Z,82.28
2018-04-25T07:03:17.177Z,83.98
2018-04-25T07:04:02.657Z,83.25
2018-04-25T07:07:34.909Z,81.05
2018-04-25T07:08:57.342Z,84.23
2018-04-25T07:12:08.174Z,83.01
2018-04-25T07:15:38.296Z,82.03
2018-04-25T07:16:38.314Z,81.79
2018-04-25T07:17:38.799Z,57.37
2018-04-25T07:18:38.799Z,80.08
2018-04-25T07:19:38.833Z,77.88
2018-04-25T07:20:38.808Z,83.50
2018-04-25T07:24:11.995Z,80.81
2018-04-25T07:25:10.562Z,53.71
2018-04-25T07:26:10.562Z,79.83
2018-04-25T07:27:17.062Z,82.03
2018-04-25T07:28:11.067Z,52.49
2018-04-25T07:29:11.058Z,52.25
2018-04-25T07:30:11.060Z,81.54
2018-04-25T07:31:11.563Z,85.45
2018-04-25T07:32:25.567Z,80.81
2018-04-25T07:33:11.565Z,58.35
2018-04-25T07:34:11.568Z,83.98
2018-04-25T07:35:12.062Z,83.74
2018-04-25T07:36:18.068Z,82.52
2018-04-25T07:37:11.402Z,71.04
2018-04-25T07:38:12.063Z,84.23
2018-04-25T07:39:11.668Z,82.76
2018-04-25T07:40:12.566Z,82.52
2018-04-25T07:41:12.562Z,81.79
2018-04-25T07:42:12.561Z,74.22
2018-04-25T07:43:13.063Z,83.74
2018-04-25T07:44:13.068Z,82.03
2018-04-25T07:45:12.427Z,58.84
2018-04-25T07:46:13.063Z,82.76
2018-04-25T07:47:14.494Z,46.63
2018-04-25T07:48:13.559Z,80.32
2018-04-25T07:49:13.558Z,62.74
2018-04-25T07:50:13.037Z,80.08
2018-04-25T07:51:15.528Z,84.23
2018-04-25T07:52:14.134Z,50.29
2018-04-25T07:53:14.064Z,85.94
2018-04-25T07:54:15.030Z,63.72
2018-04-25T07:55:13.620Z,54.44
2018-04-25T07:56:28.570Z,83.01
2018-04-25T07:57:13.791Z,80.08
2018-04-25T07:58:13.890Z,81.05
2018-04-25T07:59:14.559Z,79.59
2018-04-25T08:00:14.993Z,83.01
2018-04-25T08:01:38.061Z,67.63
2018-04-25T08:02:17.011Z,53.71
2018-04-25T08:03:14.416Z,60.30
2018-04-25T08:07:43.721Z,66.65
2018-04-25T08:09:10.693Z,83.50
2018-04-25T08:10:05.192Z,85.94
2018-04-25T08:10:44.193Z,81.05
2018-04-25T08:11:44.194Z,75.93
2018-04-25T08:12:44.194Z,81.79
2018-04-25T08:13:47.125Z,86.18
2018-04-25T08:14:43.913Z,83.50
2018-04-25T08:15:44.694Z,84.72
2018-04-25T08:16:44.692Z,81.05
2018-04-25T08:17:47.198Z,56.64
2018-04-25T08:18:45.196Z,82.03
2018-04-25T08:19:44.537Z,84.96
2018-04-25T08:20:44.639Z,81.05
2018-04-25T08:21:45.691Z,81.54
2018-04-25T08:22:51.744Z,81.30
2018-04-25T08:23:44.933Z,83.98
2018-04-25T08:24:45.692Z,80.08
2018-04-25T08:25:45.169Z,82.03
2018-04-25T08:26:53.124Z,82.03
2018-04-25T08:28:06.393Z,82.76
2018-04-25T08:28:46.193Z,88.13
2018-04-25T08:29:47.192Z,81.05
2018-04-25T08:30:46.692Z,81.54
2018-04-25T08:31:46.692Z,81.05
2018-04-25T08:33:09.654Z,84.96
2018-04-25T08:33:46.698Z,81.30
2018-04-25T08:35:07.303Z,80.32
2018-04-25T08:35:47.193Z,82.76
2018-04-25T08:39:18.793Z,82.52
2018-04-25T08:40:18.342Z,83.50
2018-04-25T08:41:22.643Z,80.57
2018-04-25T08:42:19.240Z,83.74
2018-04-25T08:43:19.715Z,56.88
2018-04-25T08:47:11.990Z,79.83
2018-04-25T08:47:50.590Z,82.52
2018-04-25T08:48:51.492Z,76.90
2018-04-25T08:49:52.483Z,55.18
2018-04-25T08:50:51.481Z,80.81
2018-04-25T08:51:51.986Z,78.13
2018-04-25T08:53:18.991Z,84.47
2018-04-25T08:53:51.984Z,82.52
2018-04-25T08:54:51.986Z,82.76
2018-04-25T08:55:51.604Z,81.79
2018-04-25T08:57:06.482Z,75.20
2018-04-25T08:57:52.501Z,84.47
2018-04-25T08:59:13.564Z,80.57
2018-04-25T08:59:52.088Z,58.84
2018-04-25T09:03:24.376Z,79.59
2018-04-25T09:04:25.841Z,58.84
2018-04-25T09:05:30.862Z,78.13
2018-04-25T09:06:24.860Z,83.01
2018-04-25T09:07:24.338Z,82.28
2018-04-25T09:12:30.349Z,76.66
2018-04-25T09:13:28.353Z,82.03
2018-04-25T09:14:30.848Z,79.83
2018-04-25T09:15:28.137Z,62.26
2018-04-25T09:16:28.849Z,82.52
2018-04-25T09:17:30.308Z,79.59
2018-04-25T09:18:31.359Z,83.74
2018-04-25T09:19:31.353Z,79.10
2018-04-25T09:20:32.284Z,83.98
2018-04-25T09:24:00.218Z,82.76
2018-04-25T09:25:00.866Z,54.44
2018-04-25T09:26:00.461Z,55.91
2018-04-25T09:29:38.727Z,83.98
2018-04-25T09:30:32.731Z,81.30
2018-04-25T09:31:56.201Z,82.03
2018-04-25T09:35:04.594Z,81.54
2018-04-25T09:36:04.590Z,81.54
2018-04-25T09:37:27.550Z,83.01
2018-04-25T09:38:07.094Z,61.28
2018-04-25T09:39:27.533Z,83.74
2018-04-25T09:42:36.019Z,90.82
2018-04-25T09:43:37.060Z,90.33
2018-04-25T09:44:38.484Z,58.84
2018-04-25T09:45:37.053Z,79.83
2018-04-25T09:46:37.137Z,81.54
2018-04-25T09:47:39.556Z,78.13
2018-04-25T09:48:36.793Z,81.05
2018-04-25T09:49:58.551Z,83.25
2018-04-25T09:50:37.560Z,62.26
2018-04-25T09:51:44.048Z,82.52
2018-04-25T09:55:09.403Z,82.76
2018-04-25T09:56:09.006Z,76.17
2018-04-25T10:05:05.385Z,78.86
2018-04-25T10:05:44.367Z,56.40
2018-04-25T10:12:42.813Z,77.39
2018-04-25T10:13:19.812Z,82.52
2018-04-25T10:14:21.252Z,82.28
2018-04-25T10:15:20.343Z,79.35
2018-04-25T10:16:20.309Z,82.03
2018-04-25T10:20:05.833Z,81.54
2018-04-25T10:20:51.833Z,81.54
2018-04-25T10:21:51.435Z,81.30
2018-04-25T10:23:13.334Z,51.51
2018-04-25T10:23:52.349Z,83.01
2018-04-25T10:30:27.071Z,83.98
2018-04-25T10:31:27.719Z,79.83
2018-04-25T10:32:30.191Z,81.54
2018-04-25T10:33:49.196Z,81.30
2018-04-25T10:34:29.643Z,72.75
2018-04-25T10:35:29.193Z,78.61
2018-04-25T10:38:59.999Z,80.08
2018-04-25T10:42:31.720Z,55.42
2018-04-25T10:43:31.720Z,84.72
2018-04-25T10:44:31.337Z,79.59
2018-04-25T10:45:31.439Z,82.28
2018-04-25T10:46:56.223Z,83.01
2018-04-25T10:47:32.221Z,80.81
2018-04-25T10:51:06.922Z,81.05
2018-04-25T10:52:04.488Z,78.37
2018-04-25T10:55:38.807Z,79.10
2018-04-25T10:56:35.873Z,80.32
2018-04-25T10:57:42.373Z,78.86
2018-04-25T10:58:37.828Z,85.45
2018-04-25T10:59:36.392Z,82.03
2018-04-25T11:00:35.769Z,79.35
2018-04-25T11:01:36.376Z,68.36
2018-04-25T11:02:59.391Z,79.83
2018-04-25T11:03:36.875Z,84.23
2018-04-25T11:04:58.875Z,83.98
2018-04-25T11:05:38.877Z,67.38
2018-04-25T11:06:58.383Z,85.94
2018-04-25T11:07:51.393Z,87.40
2018-04-25T11:08:37.385Z,88.87
2018-04-25T11:09:37.443Z,85.69
2018-04-25T11:13:29.514Z,87.16
2018-04-25T11:15:09.096Z,85.69
2018-04-25T11:16:09.142Z,86.43
2018-04-25T11:17:09.107Z,87.16
2018-04-25T11:18:09.590Z,84.47
2018-04-25T11:19:10.045Z,85.45
2018-04-25T11:20:09.590Z,85.21
2018-04-25T11:22:09.594Z,85.69
2018-04-25T11:23:11.074Z,85.45
2018-04-25T11:24:10.096Z,87.16
2018-04-25T11:25:10.105Z,84.72
2018-04-25T11:26:10.509Z,87.40
2018-04-25T11:27:10.072Z,84.47
2018-04-25T11:36:50.348Z,87.40
2018-04-25T11:37:48.459Z,84.72
2018-04-25T11:45:25.989Z,87.16
2018-04-25T11:46:24.021Z,83.98
2018-04-25T11:47:30.538Z,87.16
2018-04-25T11:48:24.521Z,84.96
2018-04-25T11:49:31.519Z,83.98
2018-04-25T11:50:24.522Z,85.21
2018-04-25T11:53:56.284Z,86.18
2018-04-25T11:55:17.785Z,83.25
2018-04-25T11:58:50.662Z,84.72
2018-04-25T11:59:28.693Z,85.21
2018-04-25T12:03:00.454Z,84.72
2018-04-25T12:04:21.464Z,88.87
2018-04-25T12:05:07.015Z,82.28
2018-04-25T12:06:02.953Z,82.03
2018-04-25T12:09:32.472Z,50.78
2018-04-25T12:10:33.930Z,82.76
2018-04-25T12:11:53.966Z,83.50
2018-04-25T12:13:53.304Z,50.05
2018-04-25T12:19:57.486Z,83.01
2018-04-25T12:26:33.935Z,83.50
2018-04-25T12:27:11.937Z,83.25
2018-04-25T12:30:44.199Z,82.03
2018-04-25T12:32:11.199Z,83.74
2018-04-25T12:32:44.209Z,61.52
2018-04-25T12:33:44.403Z,85.45
2018-04-25T12:46:44.538Z,82.52
2018-04-25T12:47:47.038Z,83.98
2018-04-25T12:48:46.033Z,83.01
2018-04-25T12:49:45.036Z,88.13
2018-04-25T12:50:44.512Z,84.47
2018-04-25T12:54:17.277Z,80.81
2018-04-25T12:55:31.281Z,81.54
2018-04-25T12:56:17.282Z,84.72
2018-04-25T12:57:16.881Z,81.05
2018-04-25T12:58:17.780Z,83.25
2018-04-25T12:59:17.784Z,81.79
2018-04-25T13:00:17.794Z,79.83
2018-04-25T13:03:52.044Z,58.35
2018-04-25T13:04:50.070Z,85.69
2018-04-25T13:08:21.461Z,83.50
2018-04-25T13:09:43.387Z,85.21
2018-04-25T13:10:21.955Z,83.25
2018-04-25T13:16:24.974Z,84.47
2018-04-25T13:17:25.483Z,83.98
2018-04-25T13:18:24.711Z,81.30
2018-04-25T13:19:25.476Z,84.72
2018-04-25T13:20:46.476Z,82.52
2018-04-25T13:24:18.248Z,84.47
2018-04-25T13:24:57.242Z,83.50
2018-04-25T13:28:29.052Z,83.98
2018-04-25T13:29:28.524Z,85.69
2018-04-25T13:30:56.539Z,61.52
2018-04-25T13:31:50.542Z,64.21
2018-04-25T13:32:50.541Z,75.44
2018-04-25T13:33:29.542Z,85.94
2018-04-25T13:34:36.052Z,84.47
2018-04-25T13:35:30.042Z,85.21
2018-04-25T13:36:51.047Z,84.47
2018-04-25T13:37:30.041Z,83.25
2018-04-25T13:38:29.643Z,86.43
2018-04-25T13:39:31.474Z,66.89
2018-04-25T13:40:44.541Z,86.18
2018-04-25T13:41:44.541Z,81.05
2018-04-25T13:42:51.544Z,81.05
2018-04-25T13:46:02.301Z,80.81
2018-04-25T13:47:24.799Z,85.45
2018-04-25T13:48:23.808Z,80.57
2018-04-25T13:51:35.297Z,57.62
2018-04-25T13:52:55.334Z,77.88
2018-04-25T13:53:34.828Z,82.76
2018-04-25T13:54:34.828Z,82.03
2018-04-25T13:55:34.856Z,82.52
2018-04-25T13:56:57.833Z,90.58
2018-04-25T13:57:35.332Z,80.81
2018-04-25T13:58:35.338Z,82.52
2018-04-25T13:59:35.328Z,81.30
2018-04-25T14:00:35.328Z,81.30
2018-04-25T14:04:07.118Z,81.05
2018-04-25T14:05:06.752Z,82.03
2018-04-25T14:06:07.634Z,81.79
2018-04-25T14:07:09.544Z,82.76
2018-04-25T14:08:07.620Z,84.96
2018-04-25T14:09:31.118Z,80.81
2018-04-25T14:12:39.538Z,84.72
2018-04-25T14:13:39.152Z,83.01
2018-04-25T14:19:04.971Z,82.76
2018-04-25T14:22:14.629Z,83.25
2018-04-25T14:23:14.633Z,83.01
2018-04-25T14:24:15.130Z,82.52
2018-04-25T14:25:37.099Z,82.28
2018-04-25T14:26:17.566Z,83.74
2018-04-25T14:27:18.631Z,82.76
2018-04-25T14:28:15.631Z,82.28
2018-04-25T14:29:36.634Z,85.45
2018-04-25T14:30:17.662Z,85.45
2018-04-25T14:31:15.633Z,84.47
2018-04-25T14:32:18.140Z,84.23
2018-04-25T14:33:22.138Z,83.01
2018-04-25T14:34:16.139Z,80.32
2018-04-25T14:35:37.137Z,81.05
2018-04-25T14:36:16.630Z,51.27
2018-04-25T14:37:16.636Z,81.54
2018-04-25T14:39:16.136Z,81.05
2018-04-25T14:40:16.631Z,86.18
2018-04-25T14:41:16.631Z,88.87
2018-04-25T14:42:16.636Z,86.43
2018-04-25T14:43:16.629Z,82.03
2018-04-25T14:44:16.763Z,85.45
2018-04-25T14:45:17.137Z,84.47
2018-04-25T14:46:18.605Z,83.01
2018-04-25T14:47:17.084Z,83.50
2018-04-25T14:48:17.643Z,83.50
2018-04-25T14:49:17.631Z,82.52
2018-04-25T14:50:17.631Z,85.21
2018-04-25T14:51:17.630Z,83.98
2018-04-25T14:52:17.632Z,86.43
2018-04-25T14:53:18.129Z,84.47
2018-04-25T14:54:18.128Z,82.52
2018-04-25T14:55:18.132Z,83.74
2018-04-25T14:56:18.107Z,82.03
2018-04-25T14:57:18.631Z,81.05
2018-04-25T14:58:18.636Z,83.98
2018-04-25T14:59:18.639Z,85.21
2018-04-25T15:04:15.864Z,82.76
2018-04-25T15:04:50.933Z,83.25
2018-04-25T15:05:51.435Z,80.08
2018-04-25T15:09:22.858Z,84.72
2018-04-25T15:10:23.859Z,81.05
2018-04-25T15:13:56.569Z,81.05
2018-04-25T15:18:57.133Z,83.25
2018-04-25T15:19:57.809Z,83.74
2018-04-25T15:23:29.563Z,83.01
2018-04-25T15:24:29.575Z,87.16
2018-04-25T15:25:33.075Z,87.16
2018-04-25T15:29:01.459Z,83.50
2018-04-25T15:30:01.458Z,83.74
2018-04-25T15:31:23.962Z,81.05
2018-04-25T15:32:23.029Z,85.21
2018-04-25T15:33:22.956Z,87.40
2018-04-25T15:34:01.955Z,82.28
2018-04-25T15:43:08.134Z,50.54
2018-04-25T15:44:33.071Z,83.98
2018-04-25T15:45:11.116Z,82.28
2018-04-25T15:46:22.637Z,82.03
2018-04-25T15:47:08.636Z,86.67
2018-04-25T15:50:40.414Z,82.52
2018-04-25T15:51:40.396Z,84.23
2018-04-25T15:52:40.005Z,80.57
2018-04-25T15:54:01.898Z,80.08
2018-04-25T15:57:33.434Z,83.01
2018-04-25T15:58:12.439Z,52.25
2018-04-25T15:59:12.933Z,83.50
2018-04-25T16:02:44.352Z,83.50
2018-04-25T16:03:45.889Z,82.28
2018-04-25T16:04:44.850Z,84.96
2018-04-25T16:05:44.853Z,81.54
2018-04-25T16:07:13.789Z,82.76
2018-04-25T16:07:44.854Z,49.56
2018-04-25T16:08:45.352Z,87.65
2018-04-25T16:12:17.275Z,46.14
2018-04-25T16:13:17.236Z,51.51
2018-04-25T16:14:23.235Z,84.72
2018-04-25T16:15:31.735Z,83.74
2018-04-25T16:16:17.736Z,80.57
2018-04-25T16:17:17.121Z,81.79
2018-04-25T16:18:27.671Z,87.89
2018-04-25T16:19:39.246Z,83.74
2018-04-25T16:22:50.213Z,83.01
2018-04-25T16:23:51.122Z,83.50
2018-04-25T16:24:50.123Z,83.98
2018-04-25T16:25:50.122Z,74.46
2018-04-25T16:26:50.132Z,81.05
2018-04-25T16:27:50.637Z,83.01
2018-04-25T16:31:22.014Z,86.43
2018-04-25T16:32:21.495Z,83.01
2018-04-25T16:33:22.521Z,83.01
2018-04-25T16:34:45.514Z,83.01
2018-04-25T16:35:44.948Z,81.30
2018-04-25T16:36:22.514Z,83.50
2018-04-25T16:39:54.271Z,85.69
2018-04-25T16:40:55.723Z,81.05
2018-04-25T16:42:15.771Z,53.71
2018-04-25T16:42:54.772Z,54.69
2018-04-25T16:43:54.774Z,56.15
2018-04-25T16:44:54.778Z,54.69
2018-04-25T16:45:54.767Z,81.79
2018-04-25T16:46:55.279Z,83.74
2018-04-25T16:47:55.272Z,56.15
2018-04-25T16:48:55.271Z,52.98
2018-04-25T16:49:55.784Z,84.96
2018-04-25T16:53:48.040Z,83.25
2018-04-25T16:54:27.047Z,79.83
2018-04-25T16:55:26.679Z,84.72
2018-04-25T16:56:27.548Z,83.74
2018-04-25T16:57:48.545Z,84.96
2018-04-25T16:58:27.023Z,53.22
2018-04-25T16:59:57.520Z,54.44
2018-04-25T17:00:51.041Z,53.96
2018-04-25T17:01:34.049Z,54.20
2018-04-25T17:02:28.038Z,83.50
2018-04-25T17:03:48.626Z,82.52
2018-04-25T17:04:28.544Z,84.23
2018-04-25T17:05:49.551Z,80.81
2018-04-25T17:06:49.546Z,81.05
2018-04-25T17:07:31.041Z,82.76
2018-04-25T17:11:14.421Z,82.76
2018-04-25T17:12:00.420Z,51.51
2018-04-25T17:15:31.527Z,83.98
2018-04-25T17:16:31.682Z,85.21
2018-04-25T17:20:03.948Z,79.59
2018-04-25T17:25:07.149Z,85.94
2018-04-25T17:30:11.804Z,65.43
2018-04-25T17:31:10.373Z,82.52
2018-04-25T17:32:30.826Z,86.67
2018-04-25T17:33:31.868Z,82.52
2018-04-25T17:34:30.955Z,54.69
2018-04-25T17:35:10.062Z,81.79
2018-04-25T17:38:42.307Z,81.79
2018-04-25T17:39:42.308Z,73.24
2018-04-25T17:40:44.818Z,80.32
2018-04-25T17:42:07.739Z,81.05
2018-04-25T17:42:42.192Z,86.18
2018-04-25T17:43:42.809Z,78.37
2018-04-25T17:45:05.309Z,83.50
2018-04-25T17:46:04.314Z,83.50
2018-04-25T17:47:03.632Z,84.72
2018-04-25T17:47:42.739Z,55.42
2018-04-25T17:51:15.032Z,84.47
2018-04-25T17:52:14.507Z,83.74
2018-04-25T17:53:15.533Z,78.13